createdAt,value
2023-03-13T00:00:41.416Z,58.10
2023-03-13T00:03:22.153Z,57.97
2023-03-13T00:06:08.829Z,57.15
2023-03-13T00:09:00.757Z,56.75
2023-03-13T00:11:48.070Z,57.10
2023-03-13T00:14:26.671Z,57.00
2023-03-13T00:17:07.861Z,57.92
2023-03-13T00:19:53.347Z,57.94
2023-03-13T00:22:48.037Z,58.31
2023-03-13T00:25:26.313Z,57.96
2023-03-13T00:28:09.904Z,58.58
2023-03-13T00:30:50.693Z,59.94
2023-03-13T00:33:34.928Z,62.28
2023-03-13T00:36:18.142Z,61.60
2023-03-13T00:39:11.990Z,62.02
2023-03-13T00:41:55.709Z,61.96
2023-03-13T00:44:42.467Z,62.89
2023-03-13T00:47:22.735Z,62.53
2023-03-13T00:50:20.647Z,62.19
2023-03-13T00:53:08.287Z,62.98
2023-03-13T00:56:12.104Z,63.58
2023-03-13T00:59:02.792Z,63.25
2023-03-13T01:01:42.190Z,63.17
2023-03-13T01:04:26.017Z,63.55
2023-03-13T01:07:10.388Z,63.45
2023-03-13T01:09:59.295Z,64.39
2023-03-13T01:12:46.060Z,65.56
2023-03-13T01:15:42.042Z,65.50
2023-03-13T01:18:29.791Z,66.29
2023-03-13T01:21:08.446Z,65.74
2023-03-13T01:23:56.764Z,65.90
2023-03-13T01:26:46.725Z,65.35
2023-03-13T01:29:33.063Z,65.54
2023-03-13T01:32:10.689Z,66.45
2023-03-13T01:34:59.448Z,67.08
2023-03-13T01:37:43.529Z,67.70
2023-03-13T01:40:28.095Z,68.34
2023-03-13T01:43:38.606Z,67.96
2023-03-13T01:46:25.783Z,67.82
2023-03-13T01:49:22.435Z,67.12
2023-03-13T01:52:29.910Z,67.86
2023-03-13T01:55:26.699Z,67.62
2023-03-13T01:58:21.581Z,68.20
2023-03-13T02:01:12.394Z,67.38
2023-03-13T02:03:55.951Z,67.59
2023-03-13T02:06:41.945Z,67.19
2023-03-13T02:09:25.315Z,67.06
2023-03-13T02:12:16.739Z,67.65
2023-03-13T02:15:03.132Z,67.20
2023-03-13T02:17:46.832Z,67.57
2023-03-13T02:20:28.238Z,67.83
2023-03-13T02:23:26.820Z,67.05
2023-03-13T02:26:06.550Z,67.86
2023-03-13T02:29:01.637Z,69.33
2023-03-13T02:31:49.521Z,67.66
2023-03-13T02:34:35.956Z,67.17
2023-03-13T02:37:23.100Z,67.95
2023-03-13T02:40:04.759Z,68.00
2023-03-13T02:42:47.306Z,67.61
2023-03-13T02:45:40.762Z,67.22
2023-03-13T02:48:29.445Z,67.55
2023-03-13T02:51:11.724Z,66.83
2023-03-13T02:54:06.082Z,67.50
2023-03-13T02:56:53.188Z,67.46
2023-03-13T02:59:29.713Z,67.14
2023-03-13T03:02:16.492Z,67.35
2023-03-13T03:05:08.615Z,67.32
2023-03-13T03:07:56.053Z,67.42
2023-03-13T03:10:47.910Z,67.65
2023-03-13T03:13:36.658Z,67.76
2023-03-13T03:16:29.393Z,68.03
2023-03-13T03:19:11.790Z,69.16
2023-03-13T03:21:57.459Z,69.12
2023-03-13T03:24:38.537Z,69.00
2023-03-13T03:27:27.416Z,68.72
2023-03-13T03:30:09.452Z,69.08
2023-03-13T03:32:51.963Z,69.58
2023-03-13T03:35:37.315Z,69.87
2023-03-13T03:38:24.033Z,69.79
2023-03-13T03:41:14.613Z,69.59
2023-03-13T03:43:53.124Z,69.66
2023-03-13T03:46:37.555Z,69.50
2023-03-13T03:49:19.224Z,70.50
2023-03-13T03:52:02.732Z,69.98
2023-03-13T03:54:51.132Z,70.72
2023-03-13T03:57:35.894Z,70.85
2023-03-13T04:00:26.960Z,71.66
2023-03-13T04:03:06.807Z,71.85
2023-03-13T04:05:54.067Z,72.06
2023-03-13T04:08:39.514Z,71.89
2023-03-13T04:11:23.777Z,72.02
2023-03-13T04:14:07.909Z,72.19
2023-03-13T04:16:51.513Z,72.04
2023-03-13T04:19:42.345Z,72.93
2023-03-13T04:22:24.805Z,72.89
2023-03-13T04:25:11.000Z,73.22
2023-03-13T04:27:55.704Z,73.57
2023-03-13T04:30:40.121Z,73.28
2023-03-13T04:33:37.062Z,74.08
2023-03-13T04:36:58.693Z,73.99
2023-03-13T04:39:50.831Z,75.05
2023-03-13T04:42:52.496Z,75.17
2023-03-13T04:46:00.073Z,75.10
2023-03-13T04:49:03.682Z,75.10
2023-03-13T04:52:02.715Z,75.79
2023-03-13T04:55:06.695Z,75.66
2023-03-13T04:58:10.756Z,76.20
2023-03-13T05:01:15.025Z,75.59
2023-03-13T05:04:23.335Z,75.94
2023-03-13T05:07:15.180Z,76.22
2023-03-13T05:10:05.902Z,75.73
2023-03-13T05:13:00.951Z,76.09
2023-03-13T05:15:51.437Z,75.92
2023-03-13T05:18:46.868Z,75.35
2023-03-13T05:21:41.180Z,76.27
2023-03-13T05:24:45.938Z,76.39
2023-03-13T05:27:37.539Z,76.86
2023-03-13T05:30:45.752Z,76.40
2023-03-13T05:33:58.806Z,76.44
2023-03-13T05:36:55.674Z,76.91
2023-03-13T05:39:48.280Z,76.08
2023-03-13T05:42:38.644Z,76.08
2023-03-13T05:45:33.674Z,76.02
2023-03-13T05:48:48.352Z,74.56
2023-03-13T05:51:47.520Z,74.93
2023-03-13T05:54:35.330Z,75.03
2023-03-13T05:57:44.182Z,75.15
2023-03-13T06:00:35.582Z,74.35
2023-03-13T06:03:42.171Z,74.55
2023-03-13T06:06:31.382Z,73.75
2023-03-13T06:10:03.380Z,74.14
2023-03-13T06:13:10.692Z,73.85
2023-03-13T06:16:16.424Z,74.37
2023-03-13T06:19:02.098Z,73.00
2023-03-13T06:21:43.228Z,72.02
2023-03-13T06:24:28.217Z,72.17
2023-03-13T06:27:08.973Z,71.55
2023-03-13T06:29:45.159Z,71.27
2023-03-13T06:32:23.779Z,72.10
2023-03-13T06:34:59.273Z,71.12
2023-03-13T06:37:41.671Z,70.93
2023-03-13T06:40:19.402Z,70.34
2023-03-13T06:42:57.659Z,71.28
2023-03-13T06:45:46.070Z,70.04
2023-03-13T06:48:35.075Z,69.93
2023-03-13T06:51:26.672Z,67.77
2023-03-13T06:54:14.190Z,67.14
2023-03-13T06:56:59.981Z,66.57
2023-03-13T06:59:45.872Z,65.67
2023-03-13T07:02:35.118Z,65.32
2023-03-13T07:05:13.170Z,65.01
2023-03-13T07:07:59.980Z,65.43
2023-03-13T07:10:48.651Z,64.12
2023-03-13T07:13:32.634Z,64.10
2023-03-13T07:16:14.282Z,63.30
2023-03-13T07:18:49.604Z,63.88
2023-03-13T07:21:35.384Z,63.82
2023-03-13T07:24:19.018Z,63.73
2023-03-13T07:27:17.477Z,63.09
2023-03-13T07:29:56.200Z,62.70
2023-03-13T07:32:43.178Z,61.64
2023-03-13T07:35:21.715Z,60.75
2023-03-13T07:38:06.747Z,60.56
2023-03-13T07:40:56.395Z,59.66
2023-03-13T07:43:45.933Z,57.96
2023-03-13T07:46:34.260Z,58.05
2023-03-13T07:49:19.483Z,57.86
2023-03-13T07:52:03.233Z,56.60
2023-03-13T07:54:38.764Z,55.53
2023-03-13T07:57:19.894Z,54.90
2023-03-13T08:00:00.446Z,53.57
2023-03-13T08:02:42.278Z,54.25
2023-03-13T08:05:33.528Z,53.27
2023-03-13T08:08:09.439Z,52.93
2023-03-13T08:10:54.738Z,52.14
2023-03-13T08:13:42.177Z,50.81
2023-03-13T08:16:34.281Z,51.57
2023-03-13T08:19:13.772Z,51.32
2023-03-13T08:21:58.536Z,49.82
2023-03-13T08:24:44.905Z,48.88
2023-03-13T08:27:24.968Z,50.05
2023-03-13T08:30:08.176Z,49.59
2023-03-13T08:32:49.732Z,48.14
2023-03-13T08:35:31.038Z,48.40
2023-03-13T08:38:09.689Z,46.94
2023-03-13T08:40:52.747Z,47.91
2023-03-13T08:43:41.248Z,47.21
2023-03-13T08:46:21.730Z,45.83
2023-03-13T08:49:08.662Z,46.03
2023-03-13T08:51:47.107Z,45.85
2023-03-13T08:54:35.014Z,45.45
2023-03-13T08:57:22.622Z,44.90
2023-03-13T09:00:01.541Z,45.00
2023-03-13T09:02:54.851Z,45.01
2023-03-13T09:05:54.590Z,44.58
2023-03-13T09:08:58.005Z,44.95
2023-03-13T09:11:41.774Z,45.36
2023-03-13T09:14:18.393Z,43.32
2023-03-13T09:17:01.716Z,42.95
2023-03-13T09:19:59.764Z,42.74
2023-03-13T09:22:42.636Z,41.84
2023-03-13T09:25:27.678Z,40.94
2023-03-13T09:28:12.372Z,42.40
2023-03-13T09:31:11.779Z,40.72
2023-03-13T09:33:50.331Z,41.63
2023-03-13T09:36:43.060Z,41.68
2023-03-13T09:39:30.410Z,40.68
2023-03-13T09:42:21.457Z,40.68
2023-03-13T09:45:10.388Z,40.64
2023-03-13T09:47:51.529Z,41.64
2023-03-13T09:50:39.524Z,40.18
2023-03-13T09:53:41.556Z,41.02
2023-03-13T09:56:34.645Z,39.98
2023-03-13T09:59:43.737Z,41.63
2023-03-13T10:02:41.662Z,41.11
2023-03-13T10:05:27.400Z,41.59
2023-03-13T10:08:33.279Z,41.54
2023-03-13T10:11:38.853Z,40.38
2023-03-13T10:14:58.367Z,40.57
2023-03-13T10:17:51.670Z,39.42
2023-03-13T10:20:48.664Z,39.91
2023-03-13T10:23:30.185Z,40.45
2023-03-13T10:26:17.835Z,40.62
2023-03-13T10:29:01.388Z,40.38
2023-03-13T10:31:41.907Z,41.01
2023-03-13T10:34:22.020Z,39.85
2023-03-13T10:37:22.329Z,39.73
2023-03-13T10:40:23.352Z,40.81
2023-03-13T10:43:22.686Z,39.82
2023-03-13T10:46:03.986Z,39.08
2023-03-13T10:48:47.263Z,38.76
2023-03-13T10:51:36.728Z,40.28
2023-03-13T10:54:37.832Z,38.98
2023-03-13T10:57:41.052Z,39.29
2023-03-13T11:00:39.892Z,38.61
2023-03-13T11:03:33.370Z,39.78
2023-03-13T11:06:28.545Z,37.88
2023-03-13T11:09:14.674Z,38.31
2023-03-13T11:12:11.553Z,38.01
2023-03-13T11:15:03.924Z,37.20
2023-03-13T11:18:04.204Z,37.82
2023-03-13T11:20:46.100Z,38.35
2023-03-13T11:23:38.540Z,37.68
2023-03-13T11:26:38.786Z,37.02
2023-03-13T11:29:32.972Z,37.31
2023-03-13T11:32:14.713Z,36.96
2023-03-13T11:35:01.951Z,36.96
2023-03-13T11:38:00.243Z,36.82
2023-03-13T11:40:57.201Z,36.49
2023-03-13T11:44:08.518Z,38.07
2023-03-13T11:47:09.453Z,36.57
2023-03-13T11:50:19.822Z,36.54
2023-03-13T11:53:39.528Z,36.92
2023-03-13T11:56:30.230Z,37.93
2023-03-13T11:59:36.369Z,38.39
2023-03-13T12:02:15.520Z,38.40
2023-03-13T12:05:14.019Z,38.79
2023-03-13T12:08:02.792Z,39.46
2023-03-13T12:11:14.660Z,39.05
2023-03-13T12:14:06.644Z,38.72
2023-03-13T12:17:06.859Z,38.36
2023-03-13T12:19:58.551Z,38.98
2023-03-13T12:23:10.669Z,38.58
2023-03-13T12:25:54.922Z,38.10
2023-03-13T12:28:58.339Z,39.45
2023-03-13T12:32:02.765Z,38.88
2023-03-13T12:34:56.138Z,39.35
2023-03-13T12:38:05.573Z,37.73
2023-03-13T12:41:05.732Z,37.24
2023-03-13T12:44:08.868Z,37.35
2023-03-13T12:47:06.019Z,36.73
2023-03-13T12:50:42.328Z,37.03
2023-03-13T12:53:48.361Z,36.81
2023-03-13T12:56:57.880Z,38.11
2023-03-13T13:00:06.082Z,38.82
2023-03-13T13:02:49.186Z,39.94
2023-03-13T13:05:30.672Z,40.16
2023-03-13T13:08:34.800Z,39.97
2023-03-13T13:11:37.850Z,39.72
2023-03-13T13:15:00.672Z,38.87
2023-03-13T13:18:16.317Z,40.00
2023-03-13T13:21:26.418Z,39.59
2023-03-13T13:24:18.795Z,40.38
2023-03-13T13:27:08.094Z,39.95
2023-03-13T13:29:55.763Z,39.15
2023-03-13T13:32:46.912Z,39.42
2023-03-13T13:35:37.626Z,39.19
2023-03-13T13:38:51.750Z,40.50
2023-03-13T13:41:45.247Z,39.02
2023-03-13T13:44:35.562Z,39.98
2023-03-13T13:47:33.904Z,39.54
2023-03-13T13:50:34.415Z,40.21
2023-03-13T13:53:50.279Z,40.28
2023-03-13T13:56:42.345Z,40.11
2023-03-13T13:59:55.382Z,40.78
2023-03-13T14:03:02.905Z,40.58
2023-03-13T14:05:49.291Z,41.23
2023-03-13T14:08:44.577Z,40.74
2023-03-13T14:12:00.821Z,41.00
2023-03-13T14:14:54.531Z,41.26
2023-03-13T14:18:01.789Z,41.49
2023-03-13T14:21:01.158Z,41.35
2023-03-13T14:23:46.704Z,41.24
2023-03-13T14:26:34.676Z,41.72
2023-03-13T14:29:20.828Z,41.55
2023-03-13T14:32:07.313Z,41.87
2023-03-13T14:34:48.463Z,42.31
2023-03-13T14:38:06.678Z,42.85
2023-03-13T14:40:48.739Z,43.36
2023-03-13T14:43:46.978Z,43.09
2023-03-13T14:46:32.080Z,43.46
2023-03-13T14:49:21.588Z,42.98
2023-03-13T14:52:25.755Z,42.96
2023-03-13T14:55:27.732Z,43.27
2023-03-13T14:58:33.807Z,43.57
2023-03-13T15:01:33.859Z,43.41
2023-03-13T15:04:14.743Z,43.68
2023-03-13T15:07:14.162Z,43.42
2023-03-13T15:10:06.335Z,43.51
2023-03-13T15:12:48.640Z,43.80
2023-03-13T15:15:34.153Z,43.75
2023-03-13T15:18:35.501Z,44.41
2023-03-13T15:21:30.005Z,44.46
2023-03-13T15:24:18.363Z,44.03
2023-03-13T15:26:59.520Z,44.56
2023-03-13T15:29:46.754Z,45.30
2023-03-13T15:32:37.230Z,45.36
2023-03-13T15:35:30.491Z,46.03
2023-03-13T15:38:22.722Z,46.19
2023-03-13T15:41:21.152Z,46.25
2023-03-13T15:44:13.392Z,47.02
2023-03-13T15:47:06.383Z,47.29
2023-03-13T15:49:47.269Z,48.20
2023-03-13T15:52:38.009Z,47.79
2023-03-13T15:55:20.175Z,48.17
2023-03-13T15:58:07.784Z,48.28
2023-03-13T16:00:52.312Z,48.25
2023-03-13T16:03:43.439Z,49.39
2023-03-13T16:06:32.914Z,48.91
2023-03-13T16:09:23.550Z,49.05
2023-03-13T16:12:09.743Z,49.08
2023-03-13T16:14:51.791Z,49.64
2023-03-13T16:17:33.605Z,49.88
2023-03-13T16:20:29.031Z,49.45
2023-03-13T16:23:24.097Z,49.94
2023-03-13T16:26:08.759Z,49.67
2023-03-13T16:28:52.209Z,50.71
2023-03-13T16:31:39.451Z,50.38
2023-03-13T16:34:18.509Z,50.34
2023-03-13T16:37:12.733Z,50.27
2023-03-13T16:40:02.871Z,50.30
2023-03-13T16:42:50.728Z,51.27
2023-03-13T16:45:34.083Z,50.36
2023-03-13T16:48:25.141Z,50.61
2023-03-13T16:51:11.725Z,50.45
2023-03-13T16:53:53.544Z,50.46
2023-03-13T16:56:47.442Z,50.72
2023-03-13T16:59:31.685Z,50.64
2023-03-13T17:02:22.642Z,50.55
2023-03-13T17:05:10.090Z,50.50
2023-03-13T17:07:47.498Z,50.71
2023-03-13T17:10:28.921Z,50.56
2023-03-13T17:13:20.728Z,51.57
2023-03-13T17:16:19.296Z,51.37
2023-03-13T17:19:12.522Z,51.80
2023-03-13T17:22:12.158Z,52.16
2023-03-13T17:24:58.447Z,51.59
2023-03-13T17:27:39.065Z,51.70
2023-03-13T17:30:40.267Z,52.70
2023-03-13T17:33:26.100Z,52.76
2023-03-13T17:36:14.625Z,52.81
2023-03-13T17:39:04.833Z,52.84
2023-03-13T17:41:56.198Z,52.53
2023-03-13T17:44:43.785Z,53.22
2023-03-13T17:47:26.525Z,53.24
2023-03-13T17:50:08.496Z,53.06
2023-03-13T17:52:50.450Z,53.32
2023-03-13T17:55:28.200Z,53.58
2023-03-13T17:58:11.898Z,54.05
2023-03-13T18:01:00.986Z,53.86
2023-03-13T18:03:47.882Z,54.30
2023-03-13T18:06:43.686Z,54.14
2023-03-13T18:09:27.959Z,55.04
2023-03-13T18:12:17.721Z,56.07
2023-03-13T18:14:59.643Z,56.20
2023-03-13T18:17:47.687Z,56.20
2023-03-13T18:20:45.271Z,56.61
2023-03-13T18:23:25.766Z,56.70
2023-03-13T18:26:41.592Z,56.51
2023-03-13T18:29:40.579Z,56.32
2023-03-13T18:32:32.229Z,57.12
2023-03-13T18:35:13.965Z,57.10
2023-03-13T18:37:52.000Z,57.65
2023-03-13T18:40:46.090Z,58.03
2023-03-13T18:43:30.664Z,58.60
2023-03-13T18:46:17.573Z,59.31
2023-03-13T18:49:08.151Z,59.19
2023-03-13T18:51:55.204Z,60.16
2023-03-13T18:54:46.137Z,60.08
2023-03-13T18:57:44.957Z,60.35
2023-03-13T19:00:32.734Z,60.48
2023-03-13T19:03:27.743Z,61.05
2023-03-13T19:06:19.404Z,61.20
2023-03-13T19:09:37.699Z,61.30
2023-03-13T19:12:23.449Z,62.23
2023-03-13T19:15:12.751Z,62.04
2023-03-13T19:18:04.308Z,62.23
2023-03-13T19:20:49.991Z,62.16
2023-03-13T19:23:39.592Z,62.32
2023-03-13T19:26:19.871Z,62.06
2023-03-13T19:29:01.161Z,61.18
2023-03-13T19:31:55.980Z,61.21
2023-03-13T19:34:43.713Z,60.97
2023-03-13T19:37:27.988Z,60.91
2023-03-13T19:40:28.798Z,60.85
2023-03-13T19:43:14.921Z,61.02
2023-03-13T19:46:00.952Z,60.64
2023-03-13T19:48:55.021Z,59.80
2023-03-13T19:51:37.174Z,59.65
2023-03-13T19:54:20.739Z,59.81
2023-03-13T19:57:04.977Z,59.34
2023-03-13T19:59:57.670Z,58.60
2023-03-13T20:02:40.415Z,58.42
2023-03-13T20:05:18.705Z,58.05
2023-03-13T20:08:08.125Z,58.24
2023-03-13T20:11:11.304Z,57.84
2023-03-13T20:14:02.517Z,57.32
2023-03-13T20:16:45.861Z,57.08
2023-03-13T20:19:56.485Z,56.71
2023-03-13T20:22:41.223Z,56.97
2023-03-13T20:25:25.700Z,57.08
2023-03-13T20:28:12.600Z,56.72
2023-03-13T20:30:57.339Z,56.94
2023-03-13T20:33:44.306Z,57.12
2023-03-13T20:36:33.386Z,57.11
2023-03-13T20:39:13.799Z,56.63
2023-03-13T20:42:03.277Z,56.57
2023-03-13T20:44:52.796Z,57.53
2023-03-13T20:47:41.355Z,57.12
2023-03-13T20:50:25.352Z,57.54
2023-03-13T20:53:06.011Z,56.59
2023-03-13T20:55:52.629Z,56.82
2023-03-13T20:58:34.407Z,56.70
2023-03-13T21:01:19.253Z,56.27
2023-03-13T21:04:06.661Z,56.14
2023-03-13T21:06:53.677Z,56.66
2023-03-13T21:09:34.773Z,57.33
2023-03-13T21:12:18.157Z,58.37
2023-03-13T21:15:05.025Z,58.56
2023-03-13T21:17:46.858Z,59.22
2023-03-13T21:20:31.895Z,59.08
2023-03-13T21:23:09.583Z,59.09
2023-03-13T21:26:05.553Z,59.66
2023-03-13T21:28:53.721Z,59.63
2023-03-13T21:31:38.885Z,59.98
2023-03-13T21:34:24.717Z,59.78
2023-03-13T21:37:06.111Z,59.84
2023-03-13T21:39:52.774Z,59.49
2023-03-13T21:42:43.650Z,59.51
2023-03-13T21:45:28.670Z,59.66
2023-03-13T21:48:23.675Z,59.79
2023-03-13T21:51:07.411Z,59.55
2023-03-13T21:53:53.067Z,59.95
2023-03-13T21:56:33.831Z,59.73
2023-03-13T21:59:29.070Z,60.25
2023-03-13T22:02:16.439Z,59.86
2023-03-13T22:05:00.003Z,59.89
2023-03-13T22:07:45.402Z,59.97
2023-03-13T22:10:31.551Z,59.83
2023-03-13T22:13:15.330Z,60.00
2023-03-13T22:15:59.145Z,60.15
2023-03-13T22:18:45.632Z,60.85
2023-03-13T22:21:32.696Z,60.83
2023-03-13T22:24:16.671Z,61.18
2023-03-13T22:26:56.026Z,62.12
2023-03-13T22:29:50.384Z,61.32
2023-03-13T22:32:38.746Z,61.61
2023-03-13T22:35:15.440Z,60.68
2023-03-13T22:37:56.099Z,61.08
2023-03-13T22:40:37.674Z,61.26
2023-03-13T22:43:17.964Z,61.10
2023-03-13T22:46:07.621Z,61.30
2023-03-13T22:48:56.855Z,61.01
2023-03-13T22:51:44.765Z,60.80
2023-03-13T22:54:26.018Z,61.04
2023-03-13T22:57:13.645Z,61.30
2023-03-13T22:59:58.690Z,61.63
2023-03-13T23:02:40.104Z,61.50
2023-03-13T23:05:20.323Z,62.58
2023-03-13T23:08:02.375Z,62.35
2023-03-13T23:10:47.768Z,62.47
2023-03-13T23:13:38.158Z,62.54
2023-03-13T23:16:25.667Z,63.42
2023-03-13T23:19:04.371Z,63.26
2023-03-13T23:21:42.677Z,63.15
2023-03-13T23:24:29.379Z,62.83
2023-03-13T23:27:13.619Z,62.98
2023-03-13T23:29:49.109Z,63.59
2023-03-13T23:32:35.819Z,64.62
2023-03-13T23:35:17.129Z,64.79
2023-03-13T23:38:06.599Z,65.26
2023-03-13T23:40:52.995Z,67.35
2023-03-13T23:43:42.414Z,68.60
2023-03-13T23:46:31.224Z,69.61
2023-03-13T23:49:22.749Z,69.42
2023-03-13T23:52:12.042Z,71.13
2023-03-13T23:54:55.967Z,71.16
2023-03-13T23:57:39.741Z,70.71
